Terminal Aerodrome Forecast
Issued by NWS

Home | Current Version | Previous Version | Graphics & Text | Print | Product List | Glossary On
Versions: 1 2 3 4 5 6 7 8 9 10 11 12 13 14 15 16 17 18 19 20
000
FTUS43 KBIS 190500
TAFDIK
TAF
KDIK 190520Z 1906/2006 VRB04KT P6SM SKC
      TEMPO 1909/1913 4SM BR
     FM191600 19006KT P6SM FEW070=

USA.gov is the U.S. government's official web portal to all federal, state and local government web resources and services.